createdAt,value
2023-03-02T00:01:55.352Z,16.88
2023-03-02T00:04:48.420Z,22.20
2023-03-02T00:07:22.946Z,19.77
2023-03-02T00:09:52.087Z,18.40
2023-03-02T00:12:19.859Z,22.48
2023-03-02T00:14:47.551Z,19.05
2023-03-02T00:17:15.661Z,20.52
2023-03-02T00:19:45.089Z,21.08
2023-03-02T00:22:13.021Z,21.13
2023-03-02T00:24:41.260Z,21.80
2023-03-02T00:27:08.897Z,22.27
2023-03-02T00:29:36.843Z,20.52
2023-03-02T00:32:09.207Z,16.37
2023-03-02T00:34:39.216Z,19.27
2023-03-02T00:37:06.828Z,18.77
2023-03-02T00:39:34.667Z,21.02
2023-03-02T00:42:02.277Z,20.52
2023-03-02T00:44:30.064Z,21.20
2023-03-02T00:46:57.918Z,20.20
2023-03-02T00:49:25.960Z,19.65
2023-03-02T00:51:58.987Z,20.05
2023-03-02T00:54:26.658Z,21.65
2023-03-02T00:56:54.506Z,21.27
2023-03-02T00:59:28.329Z,21.05
2023-03-02T01:02:21.940Z,20.40
2023-03-02T01:04:50.792Z,19.83
2023-03-02T01:07:20.938Z,21.42
2023-03-02T01:09:48.974Z,18.13
2023-03-02T01:12:16.642Z,18.98
2023-03-02T01:14:47.783Z,19.52
2023-03-02T01:17:15.740Z,19.77
2023-03-02T01:19:43.501Z,20.30
2023-03-02T01:22:11.299Z,22.67
2023-03-02T01:24:43.699Z,21.25
2023-03-02T01:27:11.391Z,21.73
2023-03-02T01:29:38.934Z,22.58
2023-03-02T01:32:06.659Z,23.23
2023-03-02T01:34:34.353Z,21.80
2023-03-02T01:37:02.637Z,23.17
2023-03-02T01:39:30.622Z,24.10
2023-03-02T01:41:59.402Z,23.10
2023-03-02T01:44:50.375Z,15.63
2023-03-02T01:47:25.944Z,21.38
2023-03-02T01:50:19.344Z,19.58
2023-03-02T01:52:47.476Z,19.92
2023-03-02T01:55:17.964Z,20.50
2023-03-02T01:57:47.187Z,17.48
2023-03-02T02:00:19.546Z,18.05
2023-03-02T02:02:47.915Z,20.23
2023-03-02T02:05:23.636Z,18.13
2023-03-02T02:07:53.202Z,15.80
2023-03-02T02:10:22.700Z,18.30
2023-03-02T02:12:51.503Z,16.75
2023-03-02T02:15:19.107Z,17.80
2023-03-02T02:17:46.767Z,16.48
2023-03-02T02:20:24.266Z,13.75
2023-03-02T02:22:57.701Z,19.00
2023-03-02T02:25:40.991Z,17.73
2023-03-02T02:28:22.500Z,14.50
2023-03-02T02:30:52.201Z,18.45
2023-03-02T02:33:21.554Z,17.40
2023-03-02T02:35:49.174Z,17.50
2023-03-02T02:38:18.653Z,18.75
2023-03-02T02:40:54.638Z,18.42
2023-03-02T02:43:27.218Z,14.32
2023-03-02T02:45:56.247Z,16.98
2023-03-02T02:48:27.171Z,17.17
2023-03-02T02:51:00.683Z,18.80
2023-03-02T02:53:38.856Z,19.90
2023-03-02T02:56:07.410Z,19.45
2023-03-02T02:58:42.291Z,17.77
2023-03-02T03:01:18.095Z,17.77
2023-03-02T03:04:06.595Z,19.08
2023-03-02T03:06:44.686Z,18.02
2023-03-02T03:09:13.262Z,19.92
2023-03-02T03:11:55.486Z,20.10
2023-03-02T03:14:34.674Z,18.70
2023-03-02T03:17:02.470Z,17.65
2023-03-02T03:19:31.895Z,12.95
2023-03-02T03:22:02.127Z,19.50
2023-03-02T03:24:39.110Z,18.15
2023-03-02T03:27:07.501Z,19.30
2023-03-02T03:29:39.329Z,14.18
2023-03-02T03:32:10.524Z,19.20
2023-03-02T03:37:22.371Z,19.55
2023-03-02T03:39:50.873Z,18.33
2023-03-02T03:42:19.205Z,17.88
2023-03-02T03:44:47.589Z,13.40
2023-03-02T03:47:15.557Z,20.17
2023-03-02T03:49:43.657Z,18.02
2023-03-02T03:52:11.731Z,22.00
2023-03-02T03:54:40.010Z,18.85
2023-03-02T03:57:11.400Z,16.83
2023-03-02T03:59:39.597Z,15.95
2023-03-02T04:02:11.226Z,20.90
2023-03-02T04:04:42.689Z,20.95
2023-03-02T04:07:16.944Z,20.27
2023-03-02T04:09:47.628Z,21.42
2023-03-02T04:12:22.196Z,22.50
2023-03-02T04:17:20.868Z,22.65
2023-03-02T04:19:53.388Z,22.40
2023-03-02T04:22:21.523Z,21.05
2023-03-02T04:24:49.502Z,20.63
2023-03-02T04:27:17.614Z,21.10
2023-03-02T04:29:46.617Z,23.30
2023-03-02T04:32:17.477Z,19.13
2023-03-02T04:34:49.844Z,20.38
2023-03-02T04:37:17.518Z,25.13
2023-03-02T04:39:50.228Z,23.38
2023-03-02T04:42:21.207Z,25.23
2023-03-02T04:44:49.067Z,22.02
2023-03-02T04:47:16.697Z,35.88
2023-03-02T04:49:44.314Z,33.85
2023-03-02T04:52:13.331Z,33.55
2023-03-02T04:54:41.438Z,26.02
2023-03-02T04:57:10.162Z,25.73
2023-03-02T04:59:39.732Z,21.98
2023-03-02T05:02:07.536Z,23.05
2023-03-02T05:04:38.175Z,21.20
2023-03-02T05:07:07.030Z,21.83
2023-03-02T05:09:35.648Z,24.70
2023-03-02T05:12:03.636Z,26.38
2023-03-02T05:14:31.545Z,21.25
2023-03-02T05:16:59.762Z,18.65
2023-03-02T05:19:27.664Z,18.42
2023-03-02T05:21:56.930Z,19.45
2023-03-02T05:24:25.487Z,13.38
2023-03-02T05:26:54.619Z,12.25
2023-03-02T05:29:22.432Z,13.15
2023-03-02T05:31:50.415Z,17.67
2023-03-02T05:34:18.334Z,16.33
2023-03-02T05:36:50.032Z,13.27
2023-03-02T05:39:20.102Z,16.13
2023-03-02T05:41:47.959Z,17.60
2023-03-02T05:44:15.739Z,17.80
2023-03-02T05:46:45.028Z,12.15
2023-03-02T05:49:13.574Z,19.30
2023-03-02T05:51:41.347Z,19.10
2023-03-02T05:54:09.385Z,17.85
2023-03-02T05:56:37.193Z,15.32
2023-03-02T05:59:05.026Z,13.13
2023-03-02T06:01:33.234Z,16.52
2023-03-02T06:04:01.258Z,17.10
2023-03-02T06:06:29.549Z,19.08
2023-03-02T06:08:57.826Z,14.48
2023-03-02T06:11:25.520Z,12.80
2023-03-02T06:13:53.595Z,13.88
2023-03-02T06:16:21.851Z,9.65
2023-03-02T06:18:50.430Z,8.80
2023-03-02T06:21:18.946Z,11.27
2023-03-02T06:23:47.137Z,9.95
2023-03-02T06:26:14.902Z,9.73
2023-03-02T06:28:51.988Z,5.05
2023-03-02T06:31:21.988Z,8.80
2023-03-02T06:33:49.980Z,7.75
2023-03-02T06:36:18.793Z,9.05
2023-03-02T06:38:46.659Z,6.03
2023-03-02T06:41:14.537Z,8.40
2023-03-02T06:43:42.288Z,9.45
2023-03-02T06:46:10.061Z,5.72
2023-03-02T06:48:38.164Z,5.38
2023-03-02T06:51:12.828Z,5.07
2023-03-02T06:53:41.353Z,7.30
2023-03-02T06:56:13.286Z,6.35
2023-03-02T06:58:41.866Z,6.75
2023-03-02T07:04:29.694Z,6.47
2023-03-02T07:06:57.634Z,3.95
2023-03-02T07:12:32.756Z,5.28
2023-03-02T07:15:05.626Z,4.10
2023-03-02T07:17:35.567Z,8.80
2023-03-02T07:20:06.208Z,6.00
2023-03-02T07:22:36.749Z,6.40
2023-03-02T07:25:11.053Z,5.18
2023-03-02T07:27:49.839Z,5.35
2023-03-02T07:30:21.388Z,4.70
2023-03-02T07:32:49.441Z,6.00
2023-03-02T07:35:17.669Z,4.07
2023-03-02T07:37:45.510Z,5.70
2023-03-02T07:40:13.918Z,5.55
2023-03-02T07:42:43.075Z,3.38
2023-03-02T07:45:20.783Z,4.15
2023-03-02T07:47:48.758Z,4.47
2023-03-02T07:50:16.852Z,4.78
2023-03-02T07:52:48.341Z,3.40
2023-03-02T07:55:21.723Z,3.28
2023-03-02T07:57:55.115Z,3.00
2023-03-02T08:00:23.595Z,4.57
2023-03-02T08:05:31.338Z,4.47
2023-03-02T08:08:03.265Z,3.00
2023-03-02T08:10:38.714Z,3.08
2023-03-02T08:13:13.457Z,4.00
2023-03-02T08:15:47.538Z,4.10
2023-03-02T08:18:16.616Z,4.35
2023-03-02T08:20:51.300Z,3.85
2023-03-02T08:23:21.980Z,3.17
2023-03-02T08:25:53.271Z,4.55
2023-03-02T08:28:23.312Z,2.78
2023-03-02T08:31:00.064Z,3.67
2023-03-02T08:33:28.865Z,2.90
2023-03-02T08:36:02.096Z,2.90
2023-03-02T08:38:31.656Z,2.95
2023-03-02T08:40:59.474Z,3.58
2023-03-02T08:43:27.356Z,2.80
2023-03-02T08:45:58.130Z,3.90
2023-03-02T08:48:31.602Z,2.95
2023-03-02T08:51:29.200Z,3.85
2023-03-02T08:54:04.961Z,2.38
2023-03-02T08:56:35.826Z,3.50
2023-03-02T08:59:07.031Z,3.53
2023-03-02T09:01:36.780Z,4.00
2023-03-02T09:04:08.584Z,2.05
2023-03-02T09:06:40.960Z,1.83
2023-03-02T09:09:13.042Z,2.20
2023-03-02T09:11:58.919Z,2.15
2023-03-02T09:14:28.316Z,2.55
2023-03-02T09:17:16.739Z,2.70
2023-03-02T09:19:56.730Z,2.60
2023-03-02T09:22:43.003Z,2.47
2023-03-02T09:25:13.986Z,2.50
2023-03-02T09:27:48.989Z,2.53
2023-03-02T09:30:39.046Z,2.88
2023-03-02T09:33:08.209Z,2.33
2023-03-02T09:35:40.311Z,3.60
2023-03-02T09:38:14.276Z,7.65
2023-03-02T09:41:08.239Z,10.80
2023-03-02T09:43:40.708Z,9.07
2023-03-02T09:46:18.485Z,7.70
2023-03-02T09:49:21.665Z,2.30
2023-03-02T09:52:08.666Z,4.03
2023-03-02T09:54:38.238Z,2.83
2023-03-02T09:57:24.154Z,3.57
2023-03-02T10:00:20.524Z,3.53
2023-03-02T10:03:08.188Z,4.60
2023-03-02T10:05:54.398Z,7.40
2023-03-02T10:08:27.298Z,4.18
2023-03-02T10:11:13.490Z,2.58
2023-03-02T10:13:52.615Z,3.05
2023-03-02T10:16:30.335Z,3.00
2023-03-02T10:19:05.604Z,3.63
2023-03-02T10:21:40.099Z,4.28
2023-03-02T10:24:41.488Z,3.47
2023-03-02T10:27:20.864Z,3.42
2023-03-02T10:30:01.452Z,3.45
2023-03-02T10:32:52.666Z,4.03
2023-03-02T10:35:24.040Z,3.25
2023-03-02T10:37:55.495Z,2.65
2023-03-02T10:40:33.553Z,3.33
2023-03-02T10:43:33.614Z,3.53
2023-03-02T10:46:07.849Z,3.33
2023-03-02T10:48:51.860Z,2.67
2023-03-02T10:51:28.551Z,4.32
2023-03-02T10:54:29.023Z,10.15
2023-03-02T10:57:18.443Z,2.97
2023-03-02T10:59:47.464Z,4.93
2023-03-02T11:02:24.552Z,5.05
2023-03-02T11:04:59.549Z,4.32
2023-03-02T11:07:28.968Z,4.55
2023-03-02T11:13:59.440Z,4.65
2023-03-02T11:16:35.352Z,5.45
2023-03-02T11:19:38.257Z,4.82
2023-03-02T11:22:14.810Z,3.63
2023-03-02T11:24:52.396Z,6.00
2023-03-02T11:27:27.477Z,6.10
2023-03-02T11:30:17.262Z,6.10
2023-03-02T11:32:55.262Z,4.47
2023-03-02T11:36:06.810Z,5.10
2023-03-02T11:38:50.382Z,5.15
2023-03-02T11:41:27.436Z,3.28
2023-03-02T11:43:57.001Z,4.72
2023-03-02T11:46:30.829Z,7.10
2023-03-02T11:49:07.473Z,4.78
2023-03-02T11:51:56.672Z,5.93
2023-03-02T11:54:41.666Z,8.63
2023-03-02T11:57:19.819Z,3.78
2023-03-02T11:59:47.680Z,8.73
2023-03-02T12:02:17.133Z,11.50
2023-03-02T12:04:49.043Z,3.90
2023-03-02T12:07:25.858Z,4.00
2023-03-02T12:10:07.621Z,3.67
2023-03-02T12:12:44.680Z,2.97
2023-03-02T12:15:39.726Z,7.43
2023-03-02T12:18:23.078Z,4.00
2023-03-02T12:21:17.716Z,4.72
2023-03-02T12:23:49.095Z,4.32
2023-03-02T12:26:19.981Z,9.82
2023-03-02T12:29:10.719Z,6.45
2023-03-02T12:31:50.757Z,4.57
2023-03-02T12:34:25.042Z,4.65
2023-03-02T12:36:59.089Z,3.78
2023-03-02T12:39:39.190Z,2.90
2023-03-02T12:42:21.783Z,2.00
2023-03-02T12:45:07.803Z,1.13
2023-03-02T12:47:38.399Z,2.00
2023-03-02T12:50:09.426Z,5.72
2023-03-02T12:52:40.935Z,4.53
2023-03-02T12:55:19.527Z,4.50
2023-03-02T12:57:49.678Z,2.95
2023-03-02T13:00:22.959Z,3.05
2023-03-02T13:02:54.971Z,3.55
2023-03-02T13:05:27.440Z,4.03
2023-03-02T13:08:01.409Z,3.53
2023-03-02T13:10:36.294Z,2.80
2023-03-02T13:13:30.229Z,3.35
2023-03-02T13:16:11.963Z,2.83
2023-03-02T13:18:40.807Z,3.92
2023-03-02T13:21:10.804Z,4.28
2023-03-02T13:23:50.940Z,5.63
2023-03-02T13:26:31.681Z,3.70
2023-03-02T13:29:04.748Z,5.22
2023-03-02T13:31:37.639Z,6.25
2023-03-02T13:34:05.688Z,6.40
2023-03-02T13:36:38.744Z,8.90
2023-03-02T13:39:07.826Z,2.85
2023-03-02T13:46:47.676Z,5.65
2023-03-02T13:49:32.738Z,5.38
2023-03-02T13:52:08.338Z,4.70
2023-03-02T13:54:38.333Z,4.90
2023-03-02T13:57:06.168Z,5.25
2023-03-02T13:59:37.257Z,9.13
2023-03-02T14:02:19.941Z,8.32
2023-03-02T14:04:47.808Z,6.55
2023-03-02T14:07:20.845Z,4.65
2023-03-02T14:09:48.974Z,4.65
2023-03-02T14:12:29.740Z,5.25
2023-03-02T14:15:01.355Z,7.35
2023-03-02T14:17:29.585Z,10.57
2023-03-02T14:19:57.591Z,17.30
2023-03-02T14:22:26.681Z,16.33
2023-03-02T14:24:55.930Z,9.38
2023-03-02T14:27:24.836Z,9.30
2023-03-02T14:29:52.678Z,12.60
2023-03-02T14:32:22.135Z,11.07
2023-03-02T14:34:49.984Z,11.35
2023-03-02T14:37:18.859Z,5.03
2023-03-02T14:39:48.516Z,8.88
2023-03-02T14:42:17.395Z,8.63
2023-03-02T14:44:50.189Z,7.25
2023-03-02T14:47:19.750Z,6.03
2023-03-02T14:49:49.019Z,4.78
2023-03-02T14:52:34.959Z,4.00
2023-03-02T14:55:07.915Z,4.57
2023-03-02T14:57:38.740Z,5.63
2023-03-02T15:00:07.603Z,6.30
2023-03-02T15:02:36.058Z,5.38
2023-03-02T15:05:14.699Z,3.95
2023-03-02T15:07:44.355Z,3.87
2023-03-02T15:10:17.502Z,4.85
2023-03-02T15:12:45.710Z,3.72
2023-03-02T15:15:16.736Z,3.30
2023-03-02T15:17:45.023Z,5.22
2023-03-02T15:20:17.356Z,4.60
2023-03-02T15:22:48.055Z,5.03
2023-03-02T15:25:17.532Z,5.78
2023-03-02T15:27:47.491Z,6.60
2023-03-02T15:30:17.950Z,11.02
2023-03-02T15:32:45.987Z,7.75
2023-03-02T15:35:14.678Z,9.77
2023-03-02T15:37:45.716Z,6.85
2023-03-02T15:40:15.476Z,7.45
2023-03-02T15:42:43.986Z,6.68
2023-03-02T15:45:13.855Z,6.07
2023-03-02T15:47:42.998Z,8.50
2023-03-02T15:50:13.284Z,5.85
2023-03-02T15:52:42.676Z,6.57
2023-03-02T15:55:11.287Z,16.27
2023-03-02T15:57:40.389Z,123.47
2023-03-02T16:02:43.750Z,111.25
2023-03-02T16:05:15.451Z,75.28
2023-03-02T16:07:45.596Z,19.85
2023-03-02T16:10:17.462Z,28.90
2023-03-02T16:12:46.032Z,13.88
2023-03-02T16:15:15.055Z,7.53
2023-03-02T16:17:43.044Z,8.75
2023-03-02T16:20:12.016Z,7.30
2023-03-02T16:22:40.407Z,5.68
2023-03-02T16:25:12.130Z,5.65
2023-03-02T16:27:40.681Z,5.57
2023-03-02T16:30:14.952Z,5.30
2023-03-02T16:32:44.397Z,9.82
2023-03-02T16:35:14.752Z,5.90
2023-03-02T16:37:44.686Z,6.93
2023-03-02T16:40:13.236Z,6.55
2023-03-02T16:42:41.886Z,32.15
2023-03-02T16:45:10.441Z,22.48
2023-03-02T16:47:38.286Z,14.95
2023-03-02T16:50:07.071Z,51.47
2023-03-02T16:52:35.966Z,24.33
2023-03-02T16:55:04.618Z,19.00
2023-03-02T16:57:32.909Z,17.23
2023-03-02T17:00:00.805Z,14.75
2023-03-02T17:02:29.646Z,14.30
2023-03-02T17:05:03.335Z,14.88
2023-03-02T17:07:31.897Z,36.45
2023-03-02T17:10:00.676Z,17.83
2023-03-02T17:12:29.486Z,20.02
2023-03-02T17:14:59.374Z,22.65
2023-03-02T17:17:27.534Z,34.95
2023-03-02T17:19:55.897Z,33.88
2023-03-02T17:22:26.697Z,28.20
2023-03-02T17:24:54.943Z,41.88
2023-03-02T17:27:25.983Z,22.35
2023-03-02T17:29:54.660Z,45.40
2023-03-02T17:32:23.355Z,47.35
2023-03-02T17:34:52.601Z,53.97
2023-03-02T17:37:20.438Z,47.08
2023-03-02T17:39:52.543Z,42.03
2023-03-02T17:42:20.498Z,42.22
2023-03-02T17:44:48.369Z,50.63
2023-03-02T17:47:16.517Z,45.83
2023-03-02T17:49:45.939Z,51.10
2023-03-02T17:52:19.510Z,45.08
2023-03-02T17:54:47.884Z,36.90
2023-03-02T17:57:22.061Z,45.83
2023-03-02T17:59:52.886Z,39.58
2023-03-02T18:02:20.738Z,29.05
2023-03-02T18:04:49.452Z,42.22
2023-03-02T18:07:17.816Z,40.28
2023-03-02T18:09:46.263Z,40.10
2023-03-02T18:12:16.104Z,40.80
2023-03-02T18:14:44.690Z,38.78
2023-03-02T18:17:15.259Z,40.05
2023-03-02T18:19:43.367Z,38.10
2023-03-02T18:22:11.526Z,33.95
2023-03-02T18:24:39.711Z,36.33
2023-03-02T18:29:40.467Z,38.97
2023-03-02T18:32:08.575Z,35.17
2023-03-02T18:34:40.323Z,59.13
2023-03-02T18:37:08.228Z,38.08
2023-03-02T18:39:37.868Z,35.28
2023-03-02T18:42:07.023Z,38.58
2023-03-02T18:44:35.175Z,36.10
2023-03-02T18:47:04.088Z,34.05
2023-03-02T18:49:32.137Z,36.45
2023-03-02T18:52:07.027Z,35.40
2023-03-02T18:54:35.047Z,36.92
2023-03-02T18:57:03.800Z,36.72
2023-03-02T18:59:34.284Z,38.92
2023-03-02T19:02:08.519Z,39.45
2023-03-02T19:04:36.371Z,40.22
2023-03-02T19:07:09.260Z,35.20
2023-03-02T19:09:37.506Z,39.90
2023-03-02T19:12:09.623Z,44.58
2023-03-02T19:14:39.735Z,40.10
2023-03-02T19:17:07.709Z,41.85
2023-03-02T19:19:35.761Z,36.33
2023-03-02T19:22:06.572Z,38.25
2023-03-02T19:24:35.030Z,27.60
2023-03-02T19:27:03.120Z,38.25
2023-03-02T19:29:34.830Z,39.25
2023-03-02T19:32:02.758Z,49.72
2023-03-02T19:34:30.840Z,41.95
2023-03-02T19:36:58.824Z,41.78
2023-03-02T19:39:27.463Z,46.72
2023-03-02T19:41:56.039Z,49.03
2023-03-02T19:44:25.878Z,46.75
2023-03-02T19:46:53.698Z,54.15
2023-03-02T19:49:21.478Z,51.90
2023-03-02T19:51:50.362Z,52.50
2023-03-02T19:54:18.137Z,51.17
2023-03-02T19:56:53.299Z,51.85
2023-03-02T19:59:22.223Z,50.17
2023-03-02T20:01:51.584Z,48.55
2023-03-02T20:04:23.167Z,49.90
2023-03-02T20:06:51.098Z,48.00
2023-03-02T20:09:20.518Z,40.65
2023-03-02T20:11:50.916Z,34.92
2023-03-02T20:14:31.574Z,35.05
2023-03-02T20:17:02.571Z,35.85
2023-03-02T20:19:31.766Z,39.15
2023-03-02T20:21:59.624Z,42.45
2023-03-02T20:24:30.756Z,47.15
2023-03-02T20:26:58.682Z,44.55
2023-03-02T20:29:27.061Z,47.03
2023-03-02T20:31:55.005Z,33.33
2023-03-02T20:34:22.693Z,31.30
2023-03-02T20:36:50.372Z,31.52
2023-03-02T20:39:24.319Z,28.80
2023-03-02T20:41:52.345Z,30.70
2023-03-02T20:44:20.742Z,28.25
2023-03-02T20:46:54.233Z,33.78
2023-03-02T20:49:23.707Z,31.20
2023-03-02T20:51:54.823Z,33.22
2023-03-02T20:54:24.558Z,36.45
2023-03-02T20:56:52.244Z,44.50
2023-03-02T20:59:21.643Z,43.17
2023-03-02T21:01:49.920Z,44.33
2023-03-02T21:04:17.879Z,43.10
2023-03-02T21:06:47.305Z,44.75
2023-03-02T21:09:15.577Z,52.85
2023-03-02T21:11:44.970Z,60.25
2023-03-02T21:14:16.269Z,44.53
2023-03-02T21:16:44.347Z,53.88
2023-03-02T21:19:18.203Z,40.95
2023-03-02T21:21:46.429Z,55.28
2023-03-02T21:24:18.453Z,50.70
2023-03-02T21:26:46.970Z,51.75
2023-03-02T21:29:15.136Z,47.47
2023-03-02T21:31:43.990Z,45.30
2023-03-02T21:34:12.675Z,44.60
2023-03-02T21:36:40.688Z,44.25
2023-03-02T21:39:08.545Z,43.75
2023-03-02T21:41:36.441Z,34.47
2023-03-02T21:44:05.798Z,39.63
2023-03-02T21:46:34.360Z,39.13
2023-03-02T21:49:02.302Z,37.03
2023-03-02T21:51:30.439Z,42.60
2023-03-02T21:53:58.164Z,43.78
2023-03-02T21:56:25.916Z,41.60
2023-03-02T21:58:59.887Z,49.50
2023-03-02T22:01:29.881Z,49.78
2023-03-02T22:03:57.564Z,43.80
2023-03-02T22:06:26.981Z,40.55
2023-03-02T22:08:55.960Z,45.08
2023-03-02T22:11:33.132Z,49.30
2023-03-02T22:14:02.164Z,49.10
2023-03-02T22:16:38.737Z,47.58
2023-03-02T22:19:31.376Z,38.55
2023-03-02T22:22:00.327Z,36.72
2023-03-02T22:24:33.815Z,37.22
2023-03-02T22:27:20.330Z,39.53
2023-03-02T22:29:48.846Z,43.47
2023-03-02T22:32:21.429Z,39.85
2023-03-02T22:34:53.220Z,40.15
2023-03-02T22:37:26.381Z,41.25
2023-03-02T22:39:55.687Z,47.03
2023-03-02T22:42:27.291Z,42.67
2023-03-02T22:45:14.971Z,42.20
2023-03-02T22:47:44.004Z,38.38
2023-03-02T22:50:24.920Z,33.60
2023-03-02T22:52:53.288Z,27.00
2023-03-02T22:55:27.263Z,30.08
2023-03-02T22:57:57.163Z,28.48
2023-03-02T23:00:33.934Z,26.80
2023-03-02T23:03:20.321Z,24.55
2023-03-02T23:05:51.117Z,23.23
2023-03-02T23:08:25.351Z,20.52
2023-03-02T23:10:55.116Z,20.27
2023-03-02T23:13:26.189Z,19.05
2023-03-02T23:15:55.494Z,19.08
2023-03-02T23:18:27.426Z,18.55
2023-03-02T23:20:55.228Z,17.20
2023-03-02T23:23:24.474Z,17.10
2023-03-02T23:25:52.193Z,18.80
2023-03-02T23:28:19.852Z,18.52
2023-03-02T23:30:48.124Z,18.38
2023-03-02T23:33:15.963Z,21.08
2023-03-02T23:35:43.733Z,18.20
2023-03-02T23:38:11.602Z,19.63
2023-03-02T23:40:41.764Z,19.83
2023-03-02T23:43:13.708Z,20.00
2023-03-02T23:45:42.425Z,19.65
2023-03-02T23:48:11.321Z,18.60
2023-03-02T23:50:39.629Z,19.67
2023-03-02T23:53:07.326Z,19.20
2023-03-02T23:55:35.329Z,19.30
2023-03-02T23:58:02.989Z,20.05
